PRIVATE WETTERSTATION BILLIGHEIM-ALLFELD                       ZURCK
Wetterdaten: Samstag, 24.06.2017
Datum Zeit Temp. A. Temp. A. min Temp. A. max Feuchte A. Luftdruck Regen Wind Richtung Richtung Sonnenschein ET Solar Taupunkt Windchill Windben Empfang
24.06.2017 00:00 19,4 C 19,4 C 19,5 C 63 % 1015,7 hPa 0,0 l/m 0,0 km/h (0 Bft) W-NW 292 0 min 0,051 mm 0 W/m 12,2 C 19,4 C 3,2 km/h (1 Bft) 100 %
24.06.2017 00:10 19,3 C 19,3 C 19,4 C 64 % 1015,8 hPa 0,0 l/m 1,6 km/h (1 Bft) W-NW 292 0 min 0,000 mm 0 W/m 12,3 C 19,3 C 3,2 km/h (1 Bft) 100 %
24.06.2017 00:20 19,1 C 19,1 C 19,3 C 65 % 1015,7 hPa 0,0 l/m 0,0 km/h (0 Bft) W-NW 292 0 min 0,000 mm 0 W/m 12,4 C 19,1 C 3,2 km/h (1 Bft) 100 %
24.06.2017 00:30 18,8 C 18,8 C 19,1 C 66 % 1015,8 hPa 0,0 l/m 0,0 km/h (0 Bft) W-NW 292 0 min 0,000 mm 0 W/m 12,3 C 18,8 C 3,2 km/h (1 Bft) 100 %
24.06.2017 00:40 18,6 C 18,6 C 18,8 C 66 % 1015,8 hPa 0,0 l/m 0,0 km/h (0 Bft) W-NW 292 0 min 0,000 mm 0 W/m 12,1 C 18,6 C 3,2 km/h (1 Bft) 100 %
24.06.2017 00:50 18,4 C 18,4 C 18,6 C 67 % 1015,9 hPa 0,0 l/m 0,0 km/h (0 Bft) W-NW 292 0 min 0,000 mm 0 W/m 12,2 C 18,4 C 1,6 km/h (1 Bft) 100 %
24.06.2017 01:00 18,3 C 18,3 C 18,4 C 67 % 1015,9 hPa 0,0 l/m 0,0 km/h (0 Bft) N 0 0 min 0,025 mm 0 W/m 12,1 C 18,3 C 0,0 km/h (0 Bft) 100 %
24.06.2017 01:10 18,2 C 18,2 C 18,3 C 68 % 1015,8 hPa 0,0 l/m 0,0 km/h (0 Bft) N 0 0 min 0,000 mm 0 W/m 12,2 C 18,2 C 0,0 km/h (0 Bft) 100 %
24.06.2017 01:20 18,2 C 18,2 C 18,2 C 68 % 1015,8 hPa 0,0 l/m 0,0 km/h (0 Bft) W-NW 292 0 min 0,000 mm 0 W/m 12,2 C 18,2 C 4,8 km/h (1 Bft) 100 %
24.06.2017 01:30 18,2 C 18,2 C 18,2 C 66 % 1015,8 hPa 0,0 l/m 1,6 km/h (1 Bft) W-NW 292 0 min 0,000 mm 0 W/m 11,7 C 18,2 C 6,4 km/h (2 Bft) 100 %
24.06.2017 01:40 18,2 C 18,2 C 18,2 C 66 % 1015,8 hPa 0,0 l/m 0,0 km/h (0 Bft) W-NW 292 0 min 0,000 mm 0 W/m 11,7 C 18,2 C 3,2 km/h (1 Bft) 100 %
24.06.2017 01:50 18,2 C 18,1 C 18,2 C 65 % 1015,7 hPa 0,0 l/m 0,0 km/h (0 Bft) W-NW 292 0 min 0,000 mm 0 W/m 11,5 C 18,2 C 4,8 km/h (1 Bft) 100 %
24.06.2017 02:00 18,2 C 18,1 C 18,2 C 64 % 1015,6 hPa 0,0 l/m 1,6 km/h (1 Bft) W-NW 292 0 min 0,025 mm 0 W/m 11,3 C 18,2 C 6,4 km/h (2 Bft) 100 %
24.06.2017 02:10 18,2 C 18,2 C 18,2 C 64 % 1015,7 hPa 0,0 l/m 0,0 km/h (0 Bft) W-NW 292 0 min 0,000 mm 0 W/m 11,3 C 18,2 C 4,8 km/h (1 Bft) 100 %
24.06.2017 02:20 18,0 C 18,0 C 18,2 C 65 % 1015,8 hPa 0,0 l/m 0,0 km/h (0 Bft) N 0 0 min 0,000 mm 0 W/m 11,3 C 18,0 C 0,0 km/h (0 Bft) 100 %
24.06.2017 02:30 17,8 C 17,8 C 18,0 C 65 % 1015,7 hPa 0,0 l/m 0,0 km/h (0 Bft) N 0 0 min 0,000 mm 0 W/m 11,1 C 17,8 C 0,0 km/h (0 Bft) 100 %
24.06.2017 02:40 17,6 C 17,6 C 17,8 C 65 % 1015,8 hPa 0,0 l/m 0,0 km/h (0 Bft) N 0 0 min 0,000 mm 0 W/m 10,9 C 17,6 C 0,0 km/h (0 Bft) 100 %
24.06.2017 02:50 17,2 C 17,2 C 17,6 C 69 % 1015,9 hPa 0,0 l/m 0,0 km/h (0 Bft) W-NW 292 0 min 0,000 mm 0 W/m 11,5 C 17,2 C 1,6 km/h (1 Bft) 100 %
24.06.2017 03:00 16,6 C 16,6 C 17,2 C 73 % 1015,8 hPa 0,0 l/m 0,0 km/h (0 Bft) N 0 0 min 0,025 mm 0 W/m 11,7 C 16,6 C 0,0 km/h (0 Bft) 91 %
24.06.2017 03:10 16,2 C 16,2 C 16,6 C 75 % 1015,9 hPa 0,0 l/m 1,6 km/h (1 Bft) SO 135 0 min 0,000 mm 0 W/m 11,8 C 16,2 C 8,0 km/h (2 Bft) 100 %
24.06.2017 03:20 16,0 C 16,0 C 16,2 C 76 % 1015,9 hPa 0,0 l/m 1,6 km/h (1 Bft) SO 135 0 min 0,000 mm 0 W/m 11,8 C 16,0 C 8,0 km/h (2 Bft) 100 %
24.06.2017 03:30 16,1 C 16,0 C 16,1 C 76 % 1015,9 hPa 0,0 l/m 3,2 km/h (1 Bft) SO 135 0 min 0,000 mm 0 W/m 11,9 C 16,1 C 4,8 km/h (1 Bft) 100 %
24.06.2017 03:40 16,1 C 16,1 C 16,1 C 76 % 1015,8 hPa 0,0 l/m 3,2 km/h (1 Bft) SO 135 0 min 0,000 mm 0 W/m 11,9 C 16,1 C 6,4 km/h (2 Bft) 100 %
24.06.2017 03:50 16,2 C 16,1 C 16,2 C 75 % 1015,8 hPa 0,0 l/m 0,0 km/h (0 Bft) SO 135 0 min 0,000 mm 0 W/m 11,8 C 16,2 C 1,6 km/h (1 Bft) 100 %
24.06.2017 04:00 16,1 C 16,1 C 16,2 C 75 % 1015,7 hPa 0,0 l/m 0,0 km/h (0 Bft) N 0 0 min 0,025 mm 0 W/m 11,7 C 16,1 C 0,0 km/h (0 Bft) 100 %
24.06.2017 04:10 15,9 C 15,9 C 16,1 C 75 % 1015,7 hPa 0,0 l/m 0,0 km/h (0 Bft) N 0 0 min 0,000 mm 0 W/m 11,5 C 15,9 C 0,0 km/h (0 Bft) 100 %
24.06.2017 04:20 15,8 C 15,8 C 15,9 C 76 % 1015,7 hPa 0,0 l/m 0,0 km/h (0 Bft) S-SO 157 0 min 0,000 mm 0 W/m 11,6 C 15,8 C 4,8 km/h (1 Bft) 100 %
24.06.2017 04:30 15,7 C 15,7 C 15,8 C 77 % 1015,7 hPa 0,0 l/m 0,0 km/h (0 Bft) S-SO 157 0 min 0,000 mm 0 W/m 11,7 C 15,7 C 1,6 km/h (1 Bft) 100 %
24.06.2017 04:40 15,6 C 15,6 C 15,7 C 77 % 1015,7 hPa 0,0 l/m 0,0 km/h (0 Bft) S 180 0 min 0,000 mm 0 W/m 11,6 C 15,6 C 4,8 km/h (1 Bft) 100 %
24.06.2017 04:50 15,6 C 15,6 C 15,6 C 77 % 1015,7 hPa 0,0 l/m 0,0 km/h (0 Bft) N 0 0 min 0,000 mm 0 W/m 11,6 C 15,6 C 0,0 km/h (0 Bft) 100 %
24.06.2017 05:00 15,7 C 15,6 C 15,7 C 77 % 1015,7 hPa 0,0 l/m 0,0 km/h (0 Bft) S 180 0 min 0,025 mm 0 W/m 11,7 C 15,7 C 4,8 km/h (1 Bft) 100 %
24.06.2017 05:10 15,7 C 15,7 C 15,7 C 77 % 1015,7 hPa 0,0 l/m 1,6 km/h (1 Bft) S 180 0 min 0,000 mm 0 W/m 11,7 C 15,7 C 6,4 km/h (2 Bft) 99 %
24.06.2017 05:20 15,6 C 15,6 C 15,7 C 78 % 1015,8 hPa 0,0 l/m 0,0 km/h (0 Bft) N 0 0 min 0,000 mm 0 W/m 11,8 C 15,6 C 0,0 km/h (0 Bft) 100 %
24.06.2017 05:30 15,5 C 15,5 C 15,6 C 78 % 1015,8 hPa 0,0 l/m 0,0 km/h (0 Bft) N 0 0 min 0,000 mm 5 W/m 11,7 C 15,5 C 0,0 km/h (0 Bft) 100 %
24.06.2017 05:40 15,5 C 15,4 C 15,6 C 78 % 1015,9 hPa 0,0 l/m 0,0 km/h (0 Bft) N 0 0 min 0,000 mm 11 W/m 11,7 C 15,5 C 0,0 km/h (0 Bft) 100 %
24.06.2017 05:50 15,4 C 15,4 C 15,5 C 79 % 1016,0 hPa 0,0 l/m 0,0 km/h (0 Bft) N 0 0 min 0,000 mm 12 W/m 11,8 C 15,4 C 0,0 km/h (0 Bft) 100 %
24.06.2017 06:00 15,3 C 15,3 C 15,4 C 79 % 1015,9 hPa 0,0 l/m 0,0 km/h (0 Bft) N 0 0 min 0,000 mm 19 W/m 11,7 C 15,3 C 0,0 km/h (0 Bft) 100 %
24.06.2017 06:10 15,3 C 15,3 C 15,3 C 80 % 1016,2 hPa 0,0 l/m 0,0 km/h (0 Bft) N 0 0 min 0,000 mm 28 W/m 11,9 C 15,3 C 0,0 km/h (0 Bft) 100 %
24.06.2017 06:20 15,4 C 15,3 C 15,4 C 80 % 1016,3 hPa 0,0 l/m 0,0 km/h (0 Bft) N 0 0 min 0,000 mm 49 W/m 12,0 C 15,4 C 0,0 km/h (0 Bft) 100 %
24.06.2017 06:30 15,6 C 15,4 C 15,6 C 80 % 1016,3 hPa 0,0 l/m 0,0 km/h (0 Bft) N 0 0 min 0,000 mm 56 W/m 12,2 C 15,6 C 0,0 km/h (0 Bft) 100 %
24.06.2017 06:40 15,8 C 15,6 C 15,8 C 80 % 1016,3 hPa 0,0 l/m 0,0 km/h (0 Bft) S 180 0 min 0,000 mm 63 W/m 12,4 C 15,8 C 1,6 km/h (1 Bft) 100 %
24.06.2017 06:50 16,1 C 15,8 C 16,1 C 79 % 1016,3 hPa 0,0 l/m 0,0 km/h (0 Bft) N 0 0 min 0,000 mm 65 W/m 12,5 C 16,1 C 0,0 km/h (0 Bft) 100 %
24.06.2017 07:00 16,5 C 16,1 C 16,5 C 78 % 1016,2 hPa 0,0 l/m 0,0 km/h (0 Bft) N 0 0 min 0,025 mm 77 W/m 12,6 C 16,5 C 0,0 km/h (0 Bft) 100 %
24.06.2017 07:10 16,7 C 16,5 C 16,7 C 78 % 1016,3 hPa 0,0 l/m 0,0 km/h (0 Bft) S-SW 202 0 min 0,000 mm 76 W/m 12,8 C 16,7 C 4,8 km/h (1 Bft) 100 %
24.06.2017 07:20 17,0 C 16,7 C 17,0 C 79 % 1016,3 hPa 0,0 l/m 0,0 km/h (0 Bft) N 0 0 min 0,000 mm 93 W/m 13,3 C 17,0 C 0,0 km/h (0 Bft) 100 %
24.06.2017 07:30 17,1 C 17,0 C 17,1 C 79 % 1016,5 hPa 0,0 l/m 0,0 km/h (0 Bft) S-SW 202 0 min 0,000 mm 132 W/m 13,4 C 17,1 C 3,2 km/h (1 Bft) 100 %
24.06.2017 07:40 17,3 C 17,1 C 17,3 C 79 % 1016,5 hPa 0,0 l/m 0,0 km/h (0 Bft) S-SW 202 0 min 0,000 mm 139 W/m 13,6 C 17,3 C 4,8 km/h (1 Bft) 100 %
24.06.2017 07:50 17,6 C 17,3 C 17,6 C 78 % 1016,5 hPa 0,0 l/m 3,2 km/h (1 Bft) W-SW 247 0 min 0,000 mm 137 W/m 13,7 C 17,6 C 11,3 km/h (2 Bft) 100 %
24.06.2017 08:00 17,7 C 17,6 C 17,7 C 78 % 1016,3 hPa 0,0 l/m 3,2 km/h (1 Bft) SW 225 0 min 0,051 mm 137 W/m 13,8 C 17,7 C 9,7 km/h (2 Bft) 100 %
24.06.2017 08:10 17,7 C 17,7 C 17,8 C 79 % 1016,4 hPa 0,0 l/m 3,2 km/h (1 Bft) S 180 10 min 0,000 mm 153 W/m 14,0 C 17,7 C 9,7 km/h (2 Bft) 100 %
24.06.2017 08:20 17,7 C 17,7 C 17,8 C 79 % 1016,3 hPa 0,0 l/m 3,2 km/h (1 Bft) S 180 10 min 0,000 mm 403 W/m 14,0 C 17,7 C 6,4 km/h (2 Bft) 100 %
24.06.2017 08:30 18,4 C 17,7 C 18,4 C 78 % 1016,2 hPa 0,0 l/m 1,6 km/h (1 Bft) S-SW 202 10 min 0,000 mm 434 W/m 14,5 C 18,4 C 6,4 km/h (2 Bft) 100 %
24.06.2017 08:40 19,3 C 18,4 C 19,3 C 78 % 1016,4 hPa 0,0 l/m 1,6 km/h (1 Bft) W-SW 247 10 min 0,000 mm 524 W/m 15,4 C 19,3 C 17,7 km/h (3 Bft) 100 %
24.06.2017 08:50 20,4 C 19,4 C 20,4 C 72 % 1016,3 hPa 0,0 l/m 8,0 km/h (2 Bft) S-SW 202 10 min 0,000 mm 517 W/m 15,2 C 19,8 C 24,1 km/h (4 Bft) 100 %
24.06.2017 09:00 21,1 C 20,4 C 21,1 C 67 % 1016,3 hPa 0,0 l/m 3,2 km/h (1 Bft) S-SW 202 10 min 0,203 mm 522 W/m 14,7 C 21,1 C 17,7 km/h (3 Bft) 100 %
24.06.2017 09:10 21,6 C 21,1 C 21,7 C 63 % 1016,2 hPa 0,0 l/m 6,4 km/h (2 Bft) W 270 10 min 0,000 mm 550 W/m 14,2 C 21,6 C 20,9 km/h (4 Bft) 100 %
24.06.2017 09:20 21,8 C 21,6 C 21,8 C 62 % 1016,3 hPa 0,0 l/m 8,0 km/h (2 Bft) W 270 10 min 0,000 mm 605 W/m 14,2 C 21,2 C 20,9 km/h (4 Bft) 100 %
24.06.2017 09:30 21,7 C 21,7 C 21,8 C 61 % 1016,3 hPa 0,0 l/m 14,5 km/h (3 Bft) W 270 10 min 0,000 mm 693 W/m 13,8 C 19,4 C 30,6 km/h (5 Bft) 100 %
24.06.2017 09:40 21,5 C 21,5 C 21,7 C 62 % 1016,3 hPa 0,0 l/m 12,9 km/h (3 Bft) W-NW 292 10 min 0,000 mm 689 W/m 13,9 C 19,5 C 32,2 km/h (5 Bft) 100 %
24.06.2017 09:50 21,9 C 21,5 C 21,9 C 61 % 1016,3 hPa 0,0 l/m 16,1 km/h (3 Bft) W 270 10 min 0,000 mm 686 W/m 14,0 C 19,3 C 37,0 km/h (5 Bft) 100 %
24.06.2017 10:00 21,9 C 21,8 C 21,9 C 60 % 1016,2 hPa 0,0 l/m 12,9 km/h (3 Bft) W 270 10 min 0,356 mm 724 W/m 13,8 C 20,0 C 32,2 km/h (5 Bft) 100 %
24.06.2017 10:10 21,7 C 21,7 C 21,9 C 59 % 1016,2 hPa 0,0 l/m 12,9 km/h (3 Bft) W 270 10 min 0,000 mm 874 W/m 13,3 C 19,8 C 27,4 km/h (4 Bft) 100 %
24.06.2017 10:20 21,5 C 21,5 C 21,7 C 62 % 1016,1 hPa 0,0 l/m 9,7 km/h (2 Bft) W-SW 247 10 min 0,000 mm 299 W/m 13,9 C 20,4 C 30,6 km/h (5 Bft) 100 %
24.06.2017 10:30 21,7 C 21,4 C 21,7 C 59 % 1016,3 hPa 0,0 l/m 16,1 km/h (3 Bft) SW 225 10 min 0,000 mm 918 W/m 13,3 C 19,1 C 40,2 km/h (6 Bft) 100 %
24.06.2017 10:40 21,4 C 21,4 C 21,7 C 59 % 1016,3 hPa 0,0 l/m 17,7 km/h (3 Bft) W 270 10 min 0,000 mm 714 W/m 13,0 C 18,4 C 40,2 km/h (6 Bft) 100 %
24.06.2017 10:50 21,6 C 21,4 C 21,6 C 60 % 1016,2 hPa 0,0 l/m 20,9 km/h (4 Bft) W 270 10 min 0,000 mm 946 W/m 13,5 C 18,1 C 40,2 km/h (6 Bft) 100 %
24.06.2017 11:00 21,3 C 21,3 C 21,6 C 62 % 1015,9 hPa 0,0 l/m 14,5 km/h (3 Bft) W-NW 292 10 min 0,381 mm 269 W/m 13,7 C 18,9 C 33,8 km/h (5 Bft) 100 %
24.06.2017 11:10 21,3 C 21,2 C 21,3 C 62 % 1016,2 hPa 0,0 l/m 12,9 km/h (3 Bft) W 270 10 min 0,000 mm 900 W/m 13,7 C 19,3 C 32,2 km/h (5 Bft) 100 %
24.06.2017 11:20 22,0 C 21,3 C 22,0 C 59 % 1016,2 hPa 0,0 l/m 11,3 km/h (2 Bft) W-SW 247 10 min 0,000 mm 914 W/m 13,6 C 20,5 C 33,8 km/h (5 Bft) 100 %
24.06.2017 11:30 21,9 C 21,7 C 22,0 C 62 % 1016,0 hPa 0,0 l/m 11,3 km/h (2 Bft) W 270 10 min 0,000 mm 1055 W/m 14,3 C 20,4 C 30,6 km/h (5 Bft) 100 %
24.06.2017 11:40 22,2 C 21,9 C 22,2 C 58 % 1016,2 hPa 0,0 l/m 14,5 km/h (3 Bft) W 270 10 min 0,000 mm 413 W/m 13,5 C 20,0 C 35,4 km/h (5 Bft) 100 %
24.06.2017 11:50 22,7 C 22,2 C 22,7 C 58 % 1016,1 hPa 0,0 l/m 16,1 km/h (3 Bft) W 270 10 min 0,000 mm 967 W/m 14,0 C 20,3 C 35,4 km/h (5 Bft) 100 %
24.06.2017 12:00 23,2 C 22,7 C 23,2 C 56 % 1015,9 hPa 0,0 l/m 11,3 km/h (2 Bft) SW 225 10 min 0,457 mm 1034 W/m 13,9 C 21,9 C 29,0 km/h (5 Bft) 100 %
24.06.2017 12:10 23,6 C 23,2 C 23,6 C 55 % 1015,9 hPa 0,0 l/m 16,1 km/h (3 Bft) W-SW 247 10 min 0,000 mm 1100 W/m 14,0 C 21,4 C 35,4 km/h (5 Bft) 100 %
24.06.2017 12:20 23,8 C 23,2 C 23,8 C 54 % 1015,7 hPa 0,0 l/m 15,3 km/h (3 Bft) W-NW 296 10 min 0,000 mm 990 W/m 13,9 C 21,8 C 35,4 km/h (5 Bft) 100 %
24.06.2017 12:30 24,2 C 23,8 C 24,2 C 54 % 1015,6 hPa 0,0 l/m 12,7 km/h (3 Bft) SW 230 10 min 0,000 mm 963 W/m 14,3 C 22,7 C 30,6 km/h (5 Bft) 100 %
24.06.2017 12:40 24,4 C 24,2 C 24,4 C 56 % 1015,4 hPa 0,0 l/m 11,3 km/h (2 Bft) W-SW 246 10 min 0,000 mm 958 W/m 15,0 C 23,2 C 30,6 km/h (5 Bft) 100 %
24.06.2017 12:50 24,6 C 24,4 C 24,7 C 52 % 1015,6 hPa 0,0 l/m 13,9 km/h (3 Bft) W 261 10 min 0,000 mm 949 W/m 14,1 C 23,0 C 32,2 km/h (5 Bft) 100 %
24.06.2017 13:00 24,6 C 24,6 C 24,6 C 53 % 1015,4 hPa 0,0 l/m 12,5 km/h (3 Bft) S-SW 207 10 min 0,000 mm 965 W/m 14,4 C 23,2 C 29,0 km/h (5 Bft) 100 %
24.06.2017 13:10 24,8 C 24,6 C 24,8 C 52 % 1015,3 hPa 0,0 l/m 14,3 km/h (3 Bft) NW 319 10 min 0,612 mm 953 W/m 14,3 C 23,2 C 35,4 km/h (5 Bft) 100 %
24.06.2017 13:20 24,8 C 24,7 C 24,8 C 52 % 1015,1 hPa 0,0 l/m 15,0 km/h (3 Bft) SW 217 10 min 0,000 mm 939 W/m 14,3 C 23,1 C 32,2 km/h (5 Bft) 100 %
24.06.2017 13:30 25,1 C 24,8 C 25,1 C 53 % 1015,0 hPa 0,0 l/m 12,0 km/h (2 Bft) SW 226 10 min 0,000 mm 939 W/m 14,8 C 23,9 C 27,4 km/h (4 Bft) 100 %
24.06.2017 13:40 25,3 C 25,1 C 25,3 C 50 % 1015,0 hPa 0,0 l/m 15,5 km/h (3 Bft) SW 232 10 min 0,000 mm 953 W/m 14,1 C 23,6 C 32,2 km/h (5 Bft) 100 %
24.06.2017 13:50 25,3 C 25,2 C 25,3 C 50 % 1014,8 hPa 0,0 l/m 11,7 km/h (2 Bft) NW 304 10 min 0,000 mm 942 W/m 14,1 C 24,2 C 29,0 km/h (5 Bft) 100 %
24.06.2017 14:00 25,2 C 25,2 C 25,4 C 49 % 1014,9 hPa 0,0 l/m 16,4 km/h (3 Bft) W 259 10 min 0,000 mm 926 W/m 13,7 C 23,4 C 33,8 km/h (5 Bft) 100 %
24.06.2017 14:10 25,3 C 25,2 C 25,3 C 49 % 1014,7 hPa 0,0 l/m 8,6 km/h (2 Bft) W 264 10 min 0,685 mm 958 W/m 13,8 C 24,8 C 25,7 km/h (4 Bft) 100 %
24.06.2017 14:20 25,6 C 25,3 C 25,6 C 51 % 1014,7 hPa 0,0 l/m 8,6 km/h (2 Bft) W 270 10 min 0,000 mm 956 W/m 14,7 C 25,1 C 24,1 km/h (4 Bft) 100 %
24.06.2017 14:30 25,8 C 25,6 C 25,8 C 49 % 1014,8 hPa 0,0 l/m 10,3 km/h (2 Bft) N 360 10 min 0,000 mm 946 W/m 14,3 C 25,0 C 25,7 km/h (4 Bft) 100 %
24.06.2017 14:40 26,0 C 25,8 C 26,0 C 50 % 1014,8 hPa 0,0 l/m 10,6 km/h (2 Bft) W 263 10 min 0,000 mm 949 W/m 14,8 C 25,2 C 25,7 km/h (4 Bft) 100 %
24.06.2017 14:50 25,9 C 25,8 C 26,0 C 49 % 1014,8 hPa 0,0 l/m 13,8 km/h (3 Bft) S-SW 211 10 min 0,000 mm 958 W/m 14,4 C 24,6 C 32,2 km/h (5 Bft) 100 %
24.06.2017 15:00 26,1 C 25,8 C 26,1 C 47 % 1014,7 hPa 0,0 l/m 11,7 km/h (2 Bft) W 269 10 min 0,661 mm 947 W/m 13,9 C 25,1 C 35,4 km/h (5 Bft) 100 %
24.06.2017 15:10 26,0 C 26,0 C 26,1 C 47 % 1014,6 hPa 0,0 l/m 11,1 km/h (2 Bft) W-NW 297 10 min 0,000 mm 867 W/m 13,8 C 25,1 C 33,8 km/h (5 Bft) 100 %
24.06.2017 15:20 25,7 C 25,7 C 26,1 C 48 % 1014,5 hPa 0,0 l/m 14,1 km/h (3 Bft) NW 306 10 min 0,000 mm 169 W/m 13,9 C 24,3 C 30,6 km/h (5 Bft) 100 %
24.06.2017 15:30 25,9 C 25,7 C 25,9 C 48 % 1014,4 hPa 0,0 l/m 12,0 km/h (2 Bft) S 188 0 min 0,000 mm 149 W/m 14,0 C 24,8 C 29,0 km/h (5 Bft) 100 %
24.06.2017 15:40 26,1 C 25,9 C 26,1 C 48 % 1014,4 hPa 0,0 l/m 8,2 km/h (2 Bft) NW 309 10 min 0,000 mm 237 W/m 14,2 C 25,7 C 30,6 km/h (5 Bft) 100 %
24.06.2017 15:50 26,2 C 26,1 C 26,3 C 46 % 1014,4 hPa 0,0 l/m 12,3 km/h (3 Bft) W-NW 287 10 min 0,000 mm 357 W/m 13,6 C 25,1 C 37,0 km/h (5 Bft) 100 %
24.06.2017 16:00 26,0 C 26,0 C 26,2 C 47 % 1014,3 hPa 0,0 l/m 11,5 km/h (2 Bft) NW 306 10 min 0,381 mm 773 W/m 13,8 C 25,0 C 35,4 km/h (5 Bft) 100 %
24.06.2017 16:10 25,8 C 25,8 C 26,0 C 47 % 1014,3 hPa 0,0 l/m 14,7 km/h (3 Bft) W-NW 298 10 min 0,000 mm 742 W/m 13,6 C 24,3 C 30,6 km/h (5 Bft) 100 %
24.06.2017 16:20 25,6 C 25,6 C 25,8 C 48 % 1014,2 hPa 0,0 l/m 11,8 km/h (2 Bft) SW 219 10 min 0,000 mm 729 W/m 13,8 C 24,5 C 29,0 km/h (5 Bft) 100 %
24.06.2017 16:30 25,7 C 25,6 C 25,7 C 48 % 1014,0 hPa 0,0 l/m 12,2 km/h (2 Bft) W-NW 294 10 min 0,000 mm 373 W/m 13,9 C 24,6 C 30,6 km/h (5 Bft) 100 %
24.06.2017 16:40 25,9 C 25,7 C 25,9 C 47 % 1013,8 hPa 0,0 l/m 10,5 km/h (2 Bft) W 278 0 min 0,000 mm 77 W/m 13,7 C 25,1 C 30,6 km/h (5 Bft) 100 %
24.06.2017 16:50 26,0 C 25,9 C 26,0 C 46 % 1014,0 hPa 0,0 l/m 12,6 km/h (3 Bft) W 260 0 min 0,000 mm 72 W/m 13,5 C 24,8 C 27,4 km/h (4 Bft) 100 %
24.06.2017 17:00 26,0 C 26,0 C 26,0 C 46 % 1013,8 hPa 0,0 l/m 10,3 km/h (2 Bft) W-NW 290 0 min 0,355 mm 69 W/m 13,5 C 25,2 C 24,1 km/h (4 Bft) 100 %
24.06.2017 17:10 25,9 C 25,9 C 26,0 C 46 % 1013,8 hPa 0,0 l/m 15,4 km/h (3 Bft) W-NW 290 0 min 0,000 mm 69 W/m 13,4 C 24,3 C 32,2 km/h (5 Bft) 100 %
24.06.2017 17:20 26,0 C 25,9 C 26,0 C 47 % 1013,6 hPa 0,0 l/m 8,5 km/h (2 Bft) NW 304 0 min 0,000 mm 67 W/m 13,8 C 25,5 C 27,4 km/h (4 Bft) 100 %
24.06.2017 17:30 26,1 C 26,0 C 26,1 C 46 % 1013,7 hPa 0,0 l/m 10,5 km/h (2 Bft) W-SW 245 0 min 0,000 mm 65 W/m 13,6 C 25,3 C 25,7 km/h (4 Bft) 99 %
24.06.2017 17:40 26,1 C 26,1 C 26,1 C 48 % 1013,7 hPa 0,0 l/m 6,5 km/h (2 Bft) W 271 0 min 0,000 mm 63 W/m 14,2 C 26,1 C 19,3 km/h (3 Bft) 100 %
24.06.2017 17:50 26,0 C 26,0 C 26,1 C 46 % 1013,7 hPa 0,0 l/m 11,7 km/h (2 Bft) W-NW 289 0 min 0,000 mm 63 W/m 13,5 C 25,0 C 27,4 km/h (4 Bft) 100 %
24.06.2017 18:00 25,9 C 25,9 C 26,0 C 45 % 1013,6 hPa 0,0 l/m 9,0 km/h (2 Bft) NW 310 0 min 0,127 mm 62 W/m 13,0 C 25,3 C 24,1 km/h (4 Bft) 100 %
24.06.2017 18:10 26,0 C 25,9 C 26,0 C 46 % 1013,6 hPa 0,0 l/m 7,7 km/h (2 Bft) W-NW 297 0 min 0,000 mm 58 W/m 13,5 C 25,7 C 25,7 km/h (4 Bft) 100 %
24.06.2017 18:20 26,0 C 26,0 C 26,0 C 46 % 1013,5 hPa 0,0 l/m 4,9 km/h (1 Bft) W-NW 294 0 min 0,000 mm 58 W/m 13,5 C 26,0 C 20,9 km/h (4 Bft) 100 %
24.06.2017 18:30 25,8 C 25,8 C 26,0 C 48 % 1013,6 hPa 0,0 l/m 5,9 km/h (2 Bft) SW 229 0 min 0,000 mm 56 W/m 13,9 C 25,8 C 19,3 km/h (3 Bft) 99 %
24.06.2017 18:40 25,7 C 25,7 C 25,8 C 46 % 1013,5 hPa 0,0 l/m 9,7 km/h (2 Bft) W-SW 244 0 min 0,000 mm 53 W/m 13,2 C 25,0 C 25,7 km/h (4 Bft) 100 %
24.06.2017 18:50 25,5 C 25,5 C 25,7 C 46 % 1013,4 hPa 0,0 l/m 9,9 km/h (2 Bft) NW 317 0 min 0,000 mm 51 W/m 13,0 C 24,7 C 20,9 km/h (4 Bft) 100 %
24.06.2017 19:00 25,3 C 25,3 C 25,5 C 47 % 1013,4 hPa 0,0 l/m 10,8 km/h (2 Bft) SW 230 0 min 0,102 mm 49 W/m 13,2 C 24,3 C 27,4 km/h (4 Bft) 100 %
24.06.2017 19:10 25,2 C 25,2 C 25,3 C 47 % 1013,4 hPa 0,0 l/m 7,6 km/h (2 Bft) W-NW 291 0 min 0,000 mm 63 W/m 13,1 C 24,9 C 19,3 km/h (3 Bft) 99 %
24.06.2017 19:20 25,1 C 25,1 C 25,2 C 48 % 1013,4 hPa 0,0 l/m 5,9 km/h (2 Bft) W-SW 257 0 min 0,000 mm 46 W/m 13,3 C 25,1 C 17,7 km/h (3 Bft) 100 %
24.06.2017 19:30 24,9 C 24,9 C 25,1 C 47 % 1013,4 hPa 0,0 l/m 6,1 km/h (2 Bft) W 281 10 min 0,000 mm 193 W/m 12,8 C 24,9 C 20,9 km/h (4 Bft) 100 %
24.06.2017 19:40 24,8 C 24,8 C 24,9 C 47 % 1013,4 hPa 0,0 l/m 8,1 km/h (2 Bft) W 260 10 min 0,000 mm 199 W/m 12,7 C 24,4 C 20,9 km/h (4 Bft) 100 %
24.06.2017 19:50 24,6 C 24,6 C 24,8 C 48 % 1013,3 hPa 0,0 l/m 4,2 km/h (1 Bft) W-SW 255 0 min 0,000 mm 39 W/m 12,8 C 24,6 C 19,3 km/h (3 Bft) 100 %
24.06.2017 20:00 24,3 C 24,3 C 24,6 C 49 % 1013,3 hPa 0,0 l/m 1,9 km/h (1 Bft) W 261 0 min 0,102 mm 35 W/m 12,9 C 24,3 C 11,3 km/h (2 Bft) 100 %
24.06.2017 20:10 24,1 C 24,1 C 24,3 C 49 % 1013,2 hPa 0,0 l/m 0,8 km/h (0 Bft) W-NW 283 0 min 0,000 mm 30 W/m 12,7 C 24,1 C 9,7 km/h (2 Bft) 100 %
24.06.2017 20:20 23,9 C 23,9 C 24,1 C 49 % 1013,2 hPa 0,0 l/m 4,3 km/h (1 Bft) NW 304 0 min 0,000 mm 28 W/m 12,5 C 23,9 C 14,5 km/h (3 Bft) 100 %
24.06.2017 20:30 23,8 C 23,8 C 23,9 C 52 % 1013,1 hPa 0,0 l/m 1,7 km/h (1 Bft) NW 307 0 min 0,000 mm 25 W/m 13,3 C 23,8 C 6,4 km/h (2 Bft) 100 %
24.06.2017 20:40 23,5 C 23,5 C 23,8 C 52 % 1013,1 hPa 0,0 l/m 2,2 km/h (1 Bft) W 275 0 min 0,000 mm 21 W/m 13,1 C 23,5 C 8,0 km/h (2 Bft) 100 %
24.06.2017 20:50 23,3 C 23,3 C 23,5 C 52 % 1013,0 hPa 0,0 l/m 0,4 km/h (0 Bft) W 275 0 min 0,000 mm 19 W/m 12,9 C 23,3 C 4,8 km/h (1 Bft) 100 %
24.06.2017 21:00 23,0 C 23,0 C 23,3 C 53 % 1013,0 hPa 0,0 l/m 1,5 km/h (1 Bft) W 273 0 min 0,050 mm 14 W/m 12,9 C 23,0 C 6,4 km/h (2 Bft) 100 %
24.06.2017 21:10 22,8 C 22,8 C 23,0 C 54 % 1012,9 hPa 0,0 l/m 0,0 km/h (0 Bft) W 270 0 min 0,000 mm 14 W/m 13,0 C 22,8 C 4,8 km/h (1 Bft) 100 %
24.06.2017 21:20 22,4 C 22,4 C 22,8 C 56 % 1012,9 hPa 0,0 l/m 0,0 km/h (0 Bft) N 0 0 min 0,000 mm 11 W/m 13,2 C 22,4 C 0,0 km/h (0 Bft) 100 %
24.06.2017 21:30 22,0 C 22,0 C 22,4 C 57 % 1012,8 hPa 0,0 l/m 0,0 km/h (0 Bft) N 0 0 min 0,000 mm 7 W/m 13,1 C 22,0 C 0,0 km/h (0 Bft) 100 %
24.06.2017 21:40 21,6 C 21,6 C 22,0 C 58 % 1012,8 hPa 0,0 l/m 0,0 km/h (0 Bft) N 0 0 min 0,000 mm 0 W/m 13,0 C 21,6 C 0,0 km/h (0 Bft) 100 %
24.06.2017 21:50 21,2 C 21,2 C 21,6 C 60 % 1012,7 hPa 0,0 l/m 0,0 km/h (0 Bft) N 0 0 min 0,000 mm 0 W/m 13,1 C 21,2 C 0,0 km/h (0 Bft) 100 %
24.06.2017 22:00 20,7 C 20,7 C 21,1 C 60 % 1013,0 hPa 0,0 l/m 0,0 km/h (0 Bft) N 0 0 min 0,025 mm 0 W/m 12,7 C 20,7 C 0,0 km/h (0 Bft) 100 %
24.06.2017 22:10 20,2 C 20,2 C 20,7 C 63 % 1013,1 hPa 0,0 l/m 0,0 km/h (0 Bft) N 0 0 min 0,000 mm 0 W/m 12,9 C 20,2 C 0,0 km/h (0 Bft) 100 %
24.06.2017 22:20 19,8 C 19,8 C 20,2 C 64 % 1013,3 hPa 0,0 l/m 0,0 km/h (0 Bft) N 0 0 min 0,000 mm 0 W/m 12,8 C 19,8 C 0,0 km/h (0 Bft) 100 %
24.06.2017 22:30 19,4 C 19,4 C 19,8 C 67 % 1013,3 hPa 0,0 l/m 0,0 km/h (0 Bft) N 0 0 min 0,000 mm 0 W/m 13,1 C 19,4 C 0,0 km/h (0 Bft) 100 %
24.06.2017 22:40 19,0 C 19,0 C 19,4 C 67 % 1013,3 hPa 0,0 l/m 0,0 km/h (0 Bft) N 0 0 min 0,000 mm 0 W/m 12,7 C 19,0 C 0,0 km/h (0 Bft) 100 %
24.06.2017 22:50 18,7 C 18,7 C 19,0 C 68 % 1013,4 hPa 0,0 l/m 0,0 km/h (0 Bft) N 0 0 min 0,000 mm 0 W/m 12,7 C 18,7 C 0,0 km/h (0 Bft) 100 %
24.06.2017 23:00 18,4 C 18,4 C 18,7 C 69 % 1013,5 hPa 0,0 l/m 0,0 km/h (0 Bft) N 0 0 min 0,025 mm 0 W/m 12,6 C 18,4 C 0,0 km/h (0 Bft) 100 %
24.06.2017 23:10 18,1 C 18,1 C 18,4 C 69 % 1013,6 hPa 0,0 l/m 0,0 km/h (0 Bft) N 0 0 min 0,000 mm 0 W/m 12,3 C 18,1 C 0,0 km/h (0 Bft) 100 %
24.06.2017 23:20 17,8 C 17,8 C 18,1 C 70 % 1013,6 hPa 0,0 l/m 0,0 km/h (0 Bft) N 0 0 min 0,000 mm 0 W/m 12,3 C 17,8 C 0,0 km/h (0 Bft) 100 %
24.06.2017 23:30 17,6 C 17,6 C 17,8 C 71 % 1013,5 hPa 0,0 l/m 0,0 km/h (0 Bft) N 0 0 min 0,000 mm 0 W/m 12,3 C 17,6 C 0,0 km/h (0 Bft) 100 %
24.06.2017 23:40 17,3 C 17,3 C 17,6 C 73 % 1013,5 hPa 0,0 l/m 0,0 km/h (0 Bft) N 0 0 min 0,000 mm 0 W/m 12,4 C 17,3 C 0,0 km/h (0 Bft) 100 %
24.06.2017 23:50 17,1 C 17,1 C 17,3 C 74 % 1013,5 hPa 0,0 l/m 0,0 km/h (0 Bft) N 0 0 min 0,000 mm 0 W/m 12,4 C 17,1 C 0,0 km/h (0 Bft) 100 %
_ Min-Zeit 06:00 06:00 06:10 18:00 21:50 - 00:00 - - - - - 02:40 06:00 01:00 03:00
Minimum _ 15,3 C 15,3 C 15,3 C 45 % 1012,7 hPa - 0,0 km/h (0 Bft) - - - - - 10,9 C 15,3 C 0,0 km/h (0 Bft) 91 %
_ Max-Zeit 15:50 15:50 15:50 06:10 07:30 00:00 10:50 - - 08:10 14:10 12:10 08:40 17:40 10:30 00:00
Maximum _ 26,3 C 26,1 C 26,3 C 80 % 1016,5 hPa 0,0 l/m 20,9 km/h
W (4 Bft)
- - 10 min 0,685 mm 1100 W/m 15,4 C 26,1 C 40,2 km/h
SW (6 Bft)
100 %
Durchschnitt _ 21,1 C 21,0 C 21,2 C 62 % 1015,0 hPa #0,0 l/m 5,6 km/h (1 Bft) W - #8:40 h #4,774 mm 415 W/m 13,1 C 20,5 C 15,1 km/h (3 Bft) 100 %
PRIVATE WETTERSTATION BILLIGHEIM-ALLFELD - www.neckar-odenwald-wetter.de - Holger Sonntag